РУС

ENG

 
  Pireps - S7
 

Рейс SBI2080

  • Выполнял: Dmitry Schcurov
  • Аэропорт отправления: Pashkovskiy Krasnodar Intl. (URKK)
  • Аэропорт назначения: Domodedovo Airport (UUDD)
  • Тип ВС: E170 (VQ-BYA)
  • Время полёта: 04.27
  • Дата полёта: 06.06.2020
  • Маршрут: TEMG4U TEMGI W70 AMEPU A100 MIMRA B145\r\nBUTRI R11 PT B119 LEDKA B119 FE AO1B
  • Статус: Одобрен

Детали полёта
Gross Revenue:
(70 load / $ 165.00 per unit
$ 11, 550.00
Fuel Cost:
(3418 fuel used @ 5.1 / unit)
$ 17, 431.80


Дополнительная информация о полёте:

Лог

Aircraft Used in flight is Embraer 170 Air Canada
00:53 Beacon Lights ON at 130 AGL
00:53 Engine 1 Started
00:54 Engine 2 Started
00:54Flaps 1 Selected at 130ft and 0kts
00:54 Taxi Lights ON at 130 AGL
00:55 Brakes are Released
01:03 Landing Lights ON at 130 AGL
01:03 Taxi Lights OFF at 130 AGL
01:03 Strobe Lights ON at 130 AGL
01:04 You Took off @ 154 Knots and Flaps at Position 1
Departure Weather
URKK 052130Z 00000MPS CAVOK 13/12 Q1018 R23L/CLRD70 TEMPO 2000 BR SCT007 RMK QFE760
01:05 Landing Gear Up @ 174 Knots and 670 Feet
01:06 You exceeded maximum bank angle
01:06Flaps Retracted at 4170ft and 199kts
01:07 Landing Lights OFF at 6460 AGL
02:41 Below 10000 feet you are not allowed to go over 250 knots
02:44 Landing Lights ON at 4940 AGL
02:45Flaps 1 Selected at 3920ft and 207kts
02:47Flaps 2 Selected at 3180ft and 151kts
02:48Flaps 3 Selected at 2490ft and 164kts
02:48 Landing Gear Down @ 158 Knots and 2500 Feet
02:49Flaps 6 Selected at 1990ft and 154kts
02:51 You Landed @ 139 Knots and with -250 Vertical Speed
Arrival Weather
UUDD 052130Z 18003MPS 2500 0750N PRFG NSC 09/08 Q1011 R14R/290042 TEMPO 1000 BR
02:51 Brakes are On
02:52 Brakes are Released
02:52 Taxiing to gate
02:53 Landing Lights OFF at 600 AGL
02:53 Taxi Lights ON at 600 AGL
02:53 Strobe Lights OFF at 600 AGL
02:54Flaps Retracted at 600ft and 27kts
02:57 Brakes are On
02:57 Engine 1 Stoped
02:57 Engine 2 Stoped
02:57 Taxi Lights OFF at 600 AGL
02:57 Beacon Lights OFF at 600 AGL
Pirep logged with S7 Tracking 1.0.0.14



Общая оценка полета : 100%




Route Map



 
 
   
 
Новости

03.09.2020 - Полеты в MFS 2020

Спешим сообщить вам, что теперь наш S7 Pad поддерживается для полетов в новом симуляторе MFS 2020. В разделе Загрузки вы найдете FSUIPC7.rar
Инструкция для запуска прилагается!

   
 
Авторизация






Регистрация

Восстановить пароль?

Мы в соц. сетях

      



   
 





   
 


   
 


Яндекс.Метрика

www.va-s7.ru 2011-2020
Все права защищены.



Минуточку внимания!
Сайт va-s7.ru не является коммерческим проектом. Мы не имеем отношения к торговым маркам "S7" и "Globus" и их представителям.
Эмблемы на сайте являются собственностью соответствующих компаний.

аэронавигационная метеорологическая и любая другая информация с данного ресурса ни в коем случае не должна использоваться для реальных полетов